Time;durP1;ratioP1;P1;durP2;ratioP2;P2;SDS_P1;SDS_P2;PMS_P1;PMS_P2;Temp;Humidity;BMP_temperature;BMP_pressure;BME280_temperature;BME280_humidity;BME280_pressure;Samples;Min_cycle;Max_cycle;Signal;HPM_P1;HPM_P2
2022/10/20 04:02:20;;;;;;;21.55;19.35;;;;;;;;;;5186995;23;20478;-83
2022/10/20 04:04:46;;;;;;;21.45;19.33;;;;;;;;;;5023284;28;20406;-83
2022/10/20 04:07:12;;;;;;;21.00;18.83;;;;;;;;;;5022951;28;20740;-83
2022/10/20 04:09:38;;;;;;;20.17;18.17;;;;;;;;;;5032466;28;20397;-82
2022/10/20 04:12:04;;;;;;;20.27;18.38;;;;;;;;;;5016741;28;20464;-83
2022/10/20 04:14:30;;;;;;;20.23;18.08;;;;;;;;;;5011382;28;20758;-83
2022/10/20 04:16:56;;;;;;;20.10;18.07;;;;;;;;;;5012670;28;20427;-83
2022/10/20 04:19:22;;;;;;;21.95;18.58;;;;;;;;;;5012520;28;20957;-82
2022/10/20 04:21:48;;;;;;;20.30;18.30;;;;;;;;;;4998972;28;20388;-83
2022/10/20 04:24:14;;;;;;;19.85;17.75;;;;;;;;;;5012887;28;20373;-82
2022/10/20 04:26:40;;;;;;;20.05;17.95;;;;;;;;;;5012553;28;20393;-83
2022/10/20 04:29:06;;;;;;;21.38;18.83;;;;;;;;;;5012846;28;20381;-83
2022/10/20 04:31:32;;;;;;;21.35;18.85;;;;;;;;;;5003270;28;20900;-83
2022/10/20 04:33:58;;;;;;;23.20;19.90;;;;;;;;;;5006414;28;20388;-82
2022/10/20 04:36:24;;;;;;;22.75;19.25;;;;;;;;;;5010169;28;20415;-83
2022/10/20 04:38:50;;;;;;;23.33;20.23;;;;;;;;;;5012398;28;20493;-82
2022/10/20 04:41:16;;;;;;;23.13;20.45;;;;;;;;;;5012430;28;20381;-82
2022/10/20 04:43:42;;;;;;;22.95;19.52;;;;;;;;;;5012132;28;20382;-83
2022/10/20 04:46:08;;;;;;;25.10;20.63;;;;;;;;;;5001602;28;20862;-82
2022/10/20 04:48:34;;;;;;;27.38;21.70;;;;;;;;;;5012288;28;20385;-83
2022/10/20 04:51:00;;;;;;;25.85;21.30;;;;;;;;;;5012279;28;20438;-83
2022/10/20 04:53:26;;;;;;;23.00;20.60;;;;;;;;;;5012409;28;20467;-82
2022/10/20 04:55:56;;;;;;;25.73;20.30;;;;;;;;;;5012196;28;21008;-82
2022/10/20 04:58:22;;;;;;;26.00;22.15;;;;;;;;;;5012261;28;20751;-82
2022/10/20 05:00:49;;;;;;;28.20;22.65;;;;;;;;;;5011934;28;20387;-83
2022/10/20 05:03:15;;;;;;;30.65;23.95;;;;;;;;;;5012386;28;20381;-83
2022/10/20 05:05:40;;;;;;;26.02;21.15;;;;;;;;;;5012147;28;20391;-83
2022/10/20 05:08:06;;;;;;;24.33;21.33;;;;;;;;;;5020138;28;20385;-83
2022/10/20 05:10:32;;;;;;;26.23;21.57;;;;;;;;;;5010100;28;20466;-83
2022/10/20 05:12:58;;;;;;;24.20;20.75;;;;;;;;;;5011390;28;20435;-83
2022/10/20 05:15:24;;;;;;;27.52;21.35;;;;;;;;;;5008206;28;20922;-82
2022/10/20 05:17:50;;;;;;;27.15;21.23;;;;;;;;;;5011870;28;20435;-83
2022/10/20 05:20:16;;;;;;;25.30;21.13;;;;;;;;;;5012073;28;20414;-83
2022/10/20 05:22:42;;;;;;;25.23;21.70;;;;;;;;;;5011885;28;20399;-83
2022/10/20 05:25:08;;;;;;;25.80;21.13;;;;;;;;;;5013510;28;20946;-83
2022/10/20 05:27:34;;;;;;;29.17;21.60;;;;;;;;;;5014141;28;20759;-83
2022/10/20 05:30:01;;;;;;;25.23;21.35;;;;;;;;;;5014252;28;20961;-83
2022/10/20 05:32:28;;;;;;;26.17;21.40;;;;;;;;;;5015638;28;20388;-84
2022/10/20 05:34:54;;;;;;;24.17;21.63;;;;;;;;;;5015817;28;20471;-83
2022/10/20 05:37:20;;;;;;;25.77;21.87;;;;;;;;;;5014295;28;20475;-84
2022/10/20 05:39:46;;;;;;;24.00;21.45;;;;;;;;;;5005924;28;20425;-84
2022/10/20 05:42:12;;;;;;;25.35;22.27;;;;;;;;;;4996527;28;20387;-84
2022/10/20 05:44:38;;;;;;;23.80;21.20;;;;;;;;;;5014183;28;20435;-84
2022/10/20 05:47:04;;;;;;;24.87;21.63;;;;;;;;;;5015098;28;20888;-84
2022/10/20 05:49:30;;;;;;;25.88;21.50;;;;;;;;;;5014709;28;20385;-84
2022/10/20 05:51:56;;;;;;;26.13;22.10;;;;;;;;;;5015338;28;20731;-84
2022/10/20 05:54:22;;;;;;;24.67;21.92;;;;;;;;;;5014919;28;20388;-84
2022/10/20 05:56:48;;;;;;;26.27;21.43;;;;;;;;;;5014917;28;20559;-84
2022/10/20 05:59:14;;;;;;;27.02;21.50;;;;;;;;;;5014326;28;20785;-82
2022/10/20 06:01:46;;;;;;;25.33;21.08;;;;;;;;;;5012838;28;20385;-83
2022/10/20 06:04:22;;;;;;;26.42;20.98;;;;;;;;;;5013100;28;20380;-83
2022/10/20 06:06:48;;;;;;;23.60;21.05;;;;;;;;;;5012703;28;20430;-83
2022/10/20 06:09:14;;;;;;;24.88;21.38;;;;;;;;;;5010441;28;20464;-83
2022/10/20 06:11:40;;;;;;;24.60;20.30;;;;;;;;;;5012564;28;20859;-83
2022/10/20 06:14:09;;;;;;;25.35;21.23;;;;;;;;;;5011479;28;20404;-85
2022/10/20 06:16:36;;;;;;;28.30;21.95;;;;;;;;;;5010429;28;20401;-84
2022/10/20 06:19:02;;;;;;;29.47;21.57;;;;;;;;;;5014450;28;20413;-84
2022/10/20 06:21:29;;;;;;;26.92;21.70;;;;;;;;;;5013831;28;20384;-84
2022/10/20 06:23:58;;;;;;;25.33;21.20;;;;;;;;;;5013246;28;20369;-84
2022/10/20 06:26:25;;;;;;;27.73;22.08;;;;;;;;;;5014530;28;20464;-84
2022/10/20 06:28:54;;;;;;;24.80;21.55;;;;;;;;;;5014928;28;20380;-84
2022/10/20 06:31:22;;;;;;;25.00;21.73;;;;;;;;;;5014348;28;20385;-85
2022/10/20 06:33:48;;;;;;;24.70;21.98;;;;;;;;;;5014492;28;20459;-84
2022/10/20 06:36:14;;;;;;;24.20;21.02;;;;;;;;;;5013170;28;20969;-84
2022/10/20 06:38:41;;;;;;;25.65;20.90;;;;;;;;;;5014579;28;20480;-83
2022/10/20 06:41:08;;;;;;;26.85;20.83;;;;;;;;;;5018570;28;20395;-84
2022/10/20 06:43:34;;;;;;;28.75;20.45;;;;;;;;;;5022814;28;20408;-85
2022/10/20 06:46:01;;;;;;;24.38;21.08;;;;;;;;;;5012983;28;20874;-86
2022/10/20 06:48:27;;;;;;;23.90;19.90;;;;;;;;;;5012813;28;20423;-86
2022/10/20 06:50:57;;;;;;;24.50;21.05;;;;;;;;;;5013131;28;20388;-86
2022/10/20 06:53:23;;;;;;;24.90;21.42;;;;;;;;;;5012957;28;20383;-85
2022/10/20 06:55:59;;;;;;;25.92;22.00;;;;;;;;;;5012984;28;20377;-84
2022/10/20 06:58:25;;;;;;;26.13;21.73;;;;;;;;;;5012968;28;20463;-84
2022/10/20 07:01:01;;;;;;;27.10;22.20;;;;;;;;;;5012803;28;20401;-85
2022/10/20 07:03:28;;;;;;;33.40;23.25;;;;;;;;;;5009516;28;20802;-84
2022/10/20 07:05:54;;;;;;;30.50;22.87;;;;;;;;;;5014380;28;20447;-85
2022/10/20 07:08:20;;;;;;;25.50;22.77;;;;;;;;;;5012235;28;20396;-85
2022/10/20 07:10:46;;;;;;;26.17;21.95;;;;;;;;;;5011525;28;20392;-85
2022/10/20 07:13:12;;;;;;;28.97;23.43;;;;;;;;;;5011954;28;20401;-85
2022/10/20 07:15:38;;;;;;;28.58;23.38;;;;;;;;;;5013092;28;20428;-85
2022/10/20 07:18:04;;;;;;;28.13;23.35;;;;;;;;;;5013066;28;20397;-84
2022/10/20 07:20:30;;;;;;;33.83;23.30;;;;;;;;;;5013306;28;20420;-85
2022/10/20 07:22:57;;;;;;;31.10;24.03;;;;;;;;;;5013408;28;20789;-85
2022/10/20 07:25:23;;;;;;;27.65;22.77;;;;;;;;;;5012292;28;20388;-83
2022/10/20 07:27:49;;;;;;;26.80;23.13;;;;;;;;;;5013410;28;20385;-83
2022/10/20 07:30:16;;;;;;;28.55;22.55;;;;;;;;;;5013233;28;20483;-83
2022/10/20 07:32:42;;;;;;;29.07;23.40;;;;;;;;;;5011796;28;20474;-83
2022/10/20 07:35:08;;;;;;;32.85;23.88;;;;;;;;;;5011759;28;20870;-83
2022/10/20 07:37:34;;;;;;;27.35;22.10;;;;;;;;;;4997212;28;20418;-83
2022/10/20 07:40:00;;;;;;;26.23;22.88;;;;;;;;;;4996123;28;20402;-84
2022/10/20 07:42:28;;;;;;;25.47;22.20;;;;;;;;;;4993732;28;20465;-84
2022/10/20 07:44:54;;;;;;;29.63;23.30;;;;;;;;;;4995517;28;20387;-85
2022/10/20 07:47:20;;;;;;;28.83;23.20;;;;;;;;;;5004435;28;20392;-84
2022/10/20 07:49:46;;;;;;;28.83;23.15;;;;;;;;;;5012328;28;20862;-85
2022/10/20 07:52:12;;;;;;;25.40;22.30;;;;;;;;;;5012121;28;20425;-84
2022/10/20 07:54:38;;;;;;;30.43;23.73;;;;;;;;;;5012403;28;20787;-84
2022/10/20 07:57:04;;;;;;;30.40;24.02;;;;;;;;;;5012709;28;20809;-85
2022/10/20 07:59:30;;;;;;;27.77;23.38;;;;;;;;;;5013000;28;20456;-85
2022/10/20 08:01:56;;;;;;;28.70;22.97;;;;;;;;;;5012609;28;20496;-84
2022/10/20 08:04:22;;;;;;;30.08;23.58;;;;;;;;;;5012907;28;20783;-85
2022/10/20 08:06:48;;;;;;;29.77;23.67;;;;;;;;;;5013114;28;20410;-84
2022/10/20 08:09:14;;;;;;;29.63;23.83;;;;;;;;;;5012791;28;20413;-84
2022/10/20 08:11:40;;;;;;;33.15;24.55;;;;;;;;;;5012604;28;20881;-84
2022/10/20 08:14:06;;;;;;;30.13;23.90;;;;;;;;;;5012717;28;20393;-84
2022/10/20 08:16:33;;;;;;;30.40;23.65;;;;;;;;;;5012925;28;20492;-85
2022/10/20 08:18:59;;;;;;;30.33;24.70;;;;;;;;;;5012756;28;20381;-84
2022/10/20 08:21:25;;;;;;;29.58;23.83;;;;;;;;;;5012626;28;20393;-85
2022/10/20 08:23:51;;;;;;;30.30;24.35;;;;;;;;;;5012671;28;20862;-85
2022/10/20 08:26:21;;;;;;;29.55;24.20;;;;;;;;;;5012576;28;20381;-85
2022/10/20 08:28:48;;;;;;;29.10;23.70;;;;;;;;;;5012792;28;20939;-84
2022/10/20 08:31:14;;;;;;;25.93;22.87;;;;;;;;;;5011061;28;20476;-85
2022/10/20 08:33:40;;;;;;;30.30;24.00;;;;;;;;;;5012581;28;20471;-84
2022/10/20 08:36:08;;;;;;;29.80;23.58;;;;;;;;;;5011107;28;20440;-84
2022/10/20 08:38:34;;;;;;;33.47;25.60;;;;;;;;;;5012400;28;20431;-84
2022/10/20 08:41:01;;;;;;;31.90;24.80;;;;;;;;;;5012375;28;20377;-84
2022/10/20 08:43:28;;;;;;;29.63;23.35;;;;;;;;;;5012365;28;20384;-85
2022/10/20 08:45:54;;;;;;;32.93;26.83;;;;;;;;;;5012387;28;20747;-84
2022/10/20 08:48:25;;;;;;;34.65;27.60;;;;;;;;;;5011697;28;20397;-85
2022/10/20 08:50:52;;;;;;;33.43;25.83;;;;;;;;;;5012178;28;20851;-85
2022/10/20 08:53:20;;;;;;;31.65;24.13;;;;;;;;;;5010959;28;20416;-84
2022/10/20 08:55:46;;;;;;;31.23;25.73;;;;;;;;;;5012068;28;20475;-85
2022/10/20 08:58:14;;;;;;;29.90;24.47;;;;;;;;;;5012368;28;20392;-85
2022/10/20 09:00:41;;;;;;;31.77;25.77;;;;;;;;;;5016028;28;20408;-85
2022/10/20 09:03:18;;;;;;;41.10;26.80;;;;;;;;;;5016181;28;20478;-85
2022/10/20 09:05:47;;;;;;;34.90;26.70;;;;;;;;;;5016235;28;20723;-84
2022/10/20 09:08:13;;;;;;;32.75;25.55;;;;;;;;;;5016159;28;20396;-85
2022/10/20 09:10:40;;;;;;;32.88;26.10;;;;;;;;;;5015812;28;20862;-85
2022/10/20 09:13:14;;;;;;;36.40;28.70;;;;;;;;;;5016253;28;20424;-85
2022/10/20 09:15:40;;;;;;;38.83;28.50;;;;;;;;;;5017930;28;20446;-85
2022/10/20 09:18:08;;;;;;;38.10;27.67;;;;;;;;;;5004361;28;20380;-86
2022/10/20 09:20:46;;;;;;;32.45;27.23;;;;;;;;;;5007489;28;20390;-85
2022/10/20 09:23:20;;;;;;;30.63;26.75;;;;;;;;;;5018600;28;20746;-84
2022/10/20 09:25:47;;;;;;;30.83;25.67;;;;;;;;;;5001113;28;20390;-85
2022/10/20 09:28:20;;;;;;;35.22;25.38;;;;;;;;;;5014609;28;20392;-85
2022/10/20 09:30:46;;;;;;;33.70;23.30;;;;;;;;;;5014484;28;20427;-85
2022/10/20 09:33:34;;;;;;;27.45;23.23;;;;;;;;;;4994082;28;21102;-86
2022/10/20 09:36:00;;;;;;;24.17;21.58;;;;;;;;;;4999546;28;20435;-85
2022/10/20 09:38:31;;;;;;;29.65;23.88;;;;;;;;;;4998104;28;20406;-85
2022/10/20 09:41:00;;;;;;;31.77;23.27;;;;;;;;;;5013349;28;20445;-85
2022/10/20 09:43:27;;;;;;;24.17;21.60;;;;;;;;;;4999893;28;20387;-84
2022/10/20 09:45:54;;;;;;;23.35;20.90;;;;;;;;;;4997359;28;20397;-85
2022/10/20 09:48:20;;;;;;;25.80;20.97;;;;;;;;;;5010330;28;20381;-84
2022/10/20 09:50:49;;;;;;;23.52;19.58;;;;;;;;;;5014667;28;20460;-85
2022/10/20 09:53:18;;;;;;;21.95;19.33;;;;;;;;;;5024272;28;20398;-87
2022/10/20 09:55:48;;;;;;;24.13;19.50;;;;;;;;;;5015031;28;20381;-84
2022/10/20 09:58:36;;;;;;;26.07;19.93;;;;;;;;;;5020577;28;20470;-84
2022/10/20 10:01:04;;;;;;;22.75;20.30;;;;;;;;;;5014622;28;20415;-84
2022/10/20 10:03:47;;;;;;;22.65;19.13;;;;;;;;;;5027530;28;20394;-85
2022/10/20 10:06:19;;;;;;;27.10;19.58;;;;;;;;;;5015025;28;20396;-86
2022/10/20 10:08:46;;;;;;;21.60;18.70;;;;;;;;;;5027298;28;20393;-85
2022/10/20 10:11:14;;;;;;;21.38;18.58;;;;;;;;;;5013807;28;20413;-86
2022/10/20 10:13:42;;;;;;;20.33;17.70;;;;;;;;;;5024748;28;20864;-84
2022/10/20 10:16:09;;;;;;;23.30;18.95;;;;;;;;;;5016893;28;20413;-85
2022/10/20 10:18:39;;;;;;;21.85;19.00;;;;;;;;;;5011713;28;20397;-84
2022/10/20 10:21:09;;;;;;;21.10;19.02;;;;;;;;;;4999811;28;20413;-84
2022/10/20 10:23:39;;;;;;;23.50;18.67;;;;;;;;;;5005366;28;20432;-86
2022/10/20 10:26:25;;;;;;;22.65;18.45;;;;;;;;;;5014493;28;20381;-86
2022/10/20 10:28:58;;;;;;;22.00;19.50;;;;;;;;;;5010347;28;20405;-86
2022/10/20 10:31:25;;;;;;;23.27;18.58;;;;;;;;;;5013873;28;20512;-85
2022/10/20 10:34:17;;;;;;;21.48;19.17;;;;;;;;;;5013522;28;20417;-85
2022/10/20 10:36:43;;;;;;;25.92;19.65;;;;;;;;;;4993276;28;20441;-85
2022/10/20 10:39:13;;;;;;;21.10;18.73;;;;;;;;;;5003275;28;20381;-83
2022/10/20 10:41:41;;;;;;;24.40;19.38;;;;;;;;;;5014109;28;20482;-83
2022/10/20 10:44:20;;;;;;;25.13;19.55;;;;;;;;;;5006085;28;20468;-82
2022/10/20 10:47:02;;;;;;;21.25;19.10;;;;;;;;;;5001397;28;20376;-82
2022/10/20 10:49:47;;;;;;;26.77;20.42;;;;;;;;;;5011628;28;20964;-82
2022/10/20 10:52:22;;;;;;;21.33;19.13;;;;;;;;;;5005713;28;20387;-83
2022/10/20 10:55:11;;;;;;;23.25;19.80;;;;;;;;;;5009060;28;20409;-83
2022/10/20 10:57:37;;;;;;;25.50;20.50;;;;;;;;;;4993690;28;20500;-83
2022/10/20 11:00:10;;;;;;;23.83;20.57;;;;;;;;;;5019962;28;20490;-83
2022/10/20 11:02:58;;;;;;;24.33;20.35;;;;;;;;;;5013019;28;20878;-82
2022/10/20 11:05:45;;;;;;;27.58;20.73;;;;;;;;;;5013959;28;20381;-82
2022/10/20 11:08:30;;;;;;;23.42;21.00;;;;;;;;;;5013951;28;20417;-82
2022/10/20 11:11:14;;;;;;;29.45;21.90;;;;;;;;;;5011931;28;20793;-83
2022/10/20 11:13:40;;;;;;;25.92;21.20;;;;;;;;;;5012786;28;20480;-82
2022/10/20 11:16:20;;;;;;;29.27;21.60;;;;;;;;;;5013636;28;20408;-83
2022/10/20 11:19:11;;;;;;;27.08;21.80;;;;;;;;;;5013768;28;20464;-82
2022/10/20 11:21:37;;;;;;;24.52;21.15;;;;;;;;;;5013566;28;20373;-83
2022/10/20 11:24:23;;;;;;;27.65;20.33;;;;;;;;;;5013612;28;20391;-83
2022/10/20 11:26:54;;;;;;;25.23;21.33;;;;;;;;;;5013541;28;20456;-83
2022/10/20 11:29:26;;;;;;;26.95;22.02;;;;;;;;;;5013461;28;20439;-83
2022/10/20 11:32:00;;;;;;;21.77;19.50;;;;;;;;;;5013465;28;20397;-83
2022/10/20 11:34:30;;;;;;;22.85;20.40;;;;;;;;;;5013723;28;20385;-83
2022/10/20 11:37:07;;;;;;;24.42;21.77;;;;;;;;;;5013631;28;20401;-82
2022/10/20 11:39:37;;;;;;;26.20;21.83;;;;;;;;;;5013266;28;20472;-83
2022/10/20 11:42:13;;;;;;;28.77;21.25;;;;;;;;;;5013412;28;20373;-83
2022/10/20 11:44:41;;;;;;;25.23;22.15;;;;;;;;;;5013167;28;20412;-83
2022/10/20 11:47:09;;;;;;;27.45;21.75;;;;;;;;;;5012620;28;20385;-83
2022/10/20 11:49:38;;;;;;;29.00;21.70;;;;;;;;;;5012869;28;20395;-83
2022/10/20 11:52:13;;;;;;;28.48;21.13;;;;;;;;;;5012539;28;20377;-82
2022/10/20 11:54:58;;;;;;;21.35;19.15;;;;;;;;;;5013129;28;20385;-83
2022/10/20 11:57:37;;;;;;;22.97;20.47;;;;;;;;;;5013203;28;20547;-83
2022/10/20 12:00:32;;;;;;;21.58;19.38;;;;;;;;;;5012901;28;20389;-83
2022/10/20 12:03:23;;;;;;;22.70;20.15;;;;;;;;;;4976899;28;20400;-83
2022/10/20 12:05:48;;;;;;;22.38;19.92;;;;;;;;;;5012849;28;20372;-83
2022/10/20 12:08:34;;;;;;;25.83;21.27;;;;;;;;;;5012920;28;20948;-83
2022/10/20 12:11:03;;;;;;;24.67;20.75;;;;;;;;;;5012700;28;20472;-83
2022/10/20 12:13:35;;;;;;;24.88;21.20;;;;;;;;;;5012836;28;20380;-83
2022/10/20 12:16:01;;;;;;;56.75;24.73;;;;;;;;;;5012573;28;20389;-83
2022/10/20 12:18:28;;;;;;;25.40;21.27;;;;;;;;;;5012665;28;20892;-83
2022/10/20 12:21:00;;;;;;;27.58;20.45;;;;;;;;;;5012539;28;20463;-83
2022/10/20 12:23:45;;;;;;;23.58;21.15;;;;;;;;;;5012670;28;20894;-83
2022/10/20 12:26:31;;;;;;;25.23;20.10;;;;;;;;;;5012547;28;20720;-83
2022/10/20 12:28:58;;;;;;;22.60;20.15;;;;;;;;;;5012620;28;20404;-83
2022/10/20 12:31:24;;;;;;;25.52;20.20;;;;;;;;;;5012434;28;20385;-83
2022/10/20 12:33:53;;;;;;;22.58;19.55;;;;;;;;;;5012458;28;20389;-83
2022/10/20 12:36:19;;;;;;;23.45;20.02;;;;;;;;;;5012372;28;20412;-82
2022/10/20 12:38:47;;;;;;;23.67;19.95;;;;;;;;;;5012539;28;20928;-83
2022/10/20 12:41:31;;;;;;;27.08;21.00;;;;;;;;;;5011958;28;20395;-83
2022/10/20 12:44:03;;;;;;;24.83;21.15;;;;;;;;;;5001473;28;20463;-83
2022/10/20 12:46:30;;;;;;;42.58;22.80;;;;;;;;;;5012469;28;20393;-83
2022/10/20 12:49:05;;;;;;;32.10;21.67;;;;;;;;;;5012348;28;20381;-83
2022/10/20 12:51:49;;;;;;;22.98;20.45;;;;;;;;;;5012153;28;20476;-83
2022/10/20 12:54:37;;;;;;;22.88;20.45;;;;;;;;;;5012286;28;20388;-83
2022/10/20 12:57:22;;;;;;;25.08;19.73;;;;;;;;;;5012200;28;20901;-83
2022/10/20 12:59:48;;;;;;;25.27;19.70;;;;;;;;;;5012378;28;20868;-83
2022/10/20 13:02:17;;;;;;;22.60;19.20;;;;;;;;;;5012067;28;20494;-83
2022/10/20 13:04:53;;;;;;;22.25;18.90;;;;;;;;;;5012501;28;20399;-83
2022/10/20 13:07:38;;;;;;;21.80;18.30;;;;;;;;;;5012198;28;20439;-83
2022/10/20 13:10:24;;;;;;;21.00;18.80;;;;;;;;;;5012155;28;20742;-83
2022/10/20 13:12:50;;;;;;;22.35;19.65;;;;;;;;;;5012029;28;20384;-83
2022/10/20 13:15:19;;;;;;;21.85;18.45;;;;;;;;;;5012155;28;20874;-83
2022/10/20 13:17:54;;;;;;;34.83;21.00;;;;;;;;;;5012232;28;20504;-83
2022/10/20 13:20:38;;;;;;;25.43;19.23;;;;;;;;;;5012550;28;20387;-83
2022/10/20 13:23:04;;;;;;;25.20;19.50;;;;;;;;;;5011998;28;20377;-83
2022/10/20 13:25:40;;;;;;;28.87;19.60;;;;;;;;;;5012000;28;20870;-83
2022/10/20 13:28:12;;;;;;;25.08;18.58;;;;;;;;;;5012108;28;20846;-83
2022/10/20 13:30:50;;;;;;;22.67;18.67;;;;;;;;;;5011980;28;20381;-83
2022/10/20 13:33:34;;;;;;;19.92;17.77;;;;;;;;;;5011901;28;20439;-83
2022/10/20 13:36:06;;;;;;;22.63;18.97;;;;;;;;;;5012018;28;20391;-83
2022/10/20 13:38:55;;;;;;;24.87;20.93;;;;;;;;;;5011924;28;20854;-83
2022/10/20 13:41:21;;;;;;;26.67;20.92;;;;;;;;;;4992427;28;20478;-83
2022/10/20 13:43:53;;;;;;;23.15;19.98;;;;;;;;;;5011852;28;20412;-82
2022/10/20 13:46:28;;;;;;;25.10;19.92;;;;;;;;;;5013642;28;20385;-83
2022/10/20 13:49:09;;;;;;;24.00;21.27;;;;;;;;;;5015371;28;20408;-82
2022/10/20 13:51:41;;;;;;;27.15;21.13;;;;;;;;;;5015175;28;20385;-83
2022/10/20 13:54:07;;;;;;;26.10;21.40;;;;;;;;;;5015279;28;20523;-82
2022/10/20 13:56:35;;;;;;;25.63;22.10;;;;;;;;;;5013128;28;20500;-83
2022/10/20 13:59:01;;;;;;;26.80;22.27;;;;;;;;;;5015212;28;20465;-83
2022/10/20 14:01:28;;;;;;;28.20;23.00;;;;;;;;;;5014926;28;20900;-82
2022/10/20 14:03:54;;;;;;;28.30;22.45;;;;;;;;;;5015045;28;20750;-83
2022/10/20 14:06:28;;;;;;;23.97;21.20;;;;;;;;;;5015104;28;20386;-83
2022/10/20 14:08:55;;;;;;;32.40;23.63;;;;;;;;;;5014909;28;20391;-83
2022/10/20 14:11:21;;;;;;;26.50;22.77;;;;;;;;;;5014899;28;20471;-83
2022/10/20 14:13:48;;;;;;;28.42;23.27;;;;;;;;;;5014936;28;20721;-83
2022/10/20 14:16:21;;;;;;;29.75;23.33;;;;;;;;;;5014772;28;20404;-83
2022/10/20 14:19:11;;;;;;;25.98;23.02;;;;;;;;;;5014832;28;20464;-83
2022/10/20 14:21:41;;;;;;;32.80;22.97;;;;;;;;;;5008137;28;20746;-83
2022/10/20 14:24:11;;;;;;;58.65;25.77;;;;;;;;;;5014734;28;20811;-83
2022/10/20 14:26:42;;;;;;;124.45;28.77;;;;;;;;;;5014900;28;20427;-83
2022/10/20 14:29:10;;;;;;;55.95;26.08;;;;;;;;;;5014690;28;20381;-83
2022/10/20 14:31:36;;;;;;;38.70;23.48;;;;;;;;;;5013127;28;20925;-83
2022/10/20 14:34:02;;;;;;;46.47;24.60;;;;;;;;;;5014685;28;20424;-83
2022/10/20 14:36:28;;;;;;;35.42;23.35;;;;;;;;;;5014237;28;20921;-83
2022/10/20 14:38:57;;;;;;;31.15;22.98;;;;;;;;;;5013956;28;20381;-82
2022/10/20 14:41:29;;;;;;;24.43;21.77;;;;;;;;;;5014297;28;20400;-83
2022/10/20 14:44:03;;;;;;;24.98;21.63;;;;;;;;;;5014245;28;20945;-83
2022/10/20 14:46:36;;;;;;;22.08;19.45;;;;;;;;;;5014301;28;20400;-83
2022/10/20 14:49:03;;;;;;;23.38;19.65;;;;;;;;;;5014341;28;20385;-83
2022/10/20 14:51:32;;;;;;;24.52;20.10;;;;;;;;;;5013142;28;20451;-83
2022/10/20 14:54:16;;;;;;;25.23;19.60;;;;;;;;;;5014285;28;20389;-83
2022/10/20 14:56:47;;;;;;;33.15;19.90;;;;;;;;;;5013656;28;20975;-83
2022/10/20 14:59:15;;;;;;;29.52;19.27;;;;;;;;;;5015055;28;20874;-83
2022/10/20 15:01:47;;;;;;;43.55;21.45;;;;;;;;;;5012421;28;20451;-82
2022/10/20 15:04:15;;;;;;;42.33;21.63;;;;;;;;;;5013999;28;20442;-83
2022/10/20 15:06:42;;;;;;;34.78;20.77;;;;;;;;;;5014468;28;20443;-84
2022/10/20 15:09:25;;;;;;;24.38;17.17;;;;;;;;;;5013861;28;20399;-85
2022/10/20 15:11:51;;;;;;;23.23;17.03;;;;;;;;;;5013881;28;20396;-84
2022/10/20 15:14:17;;;;;;;26.92;18.08;;;;;;;;;;5013759;28;20397;-84
2022/10/20 15:16:44;;;;;;;21.38;17.73;;;;;;;;;;5013762;28;20511;-84
2022/10/20 15:19:22;;;;;;;24.35;17.17;;;;;;;;;;5013743;28;20434;-85
2022/10/20 15:21:49;;;;;;;18.83;16.33;;;;;;;;;;5013575;28;20389;-85
2022/10/20 15:24:15;;;;;;;23.40;17.15;;;;;;;;;;5013560;28;20385;-84
2022/10/20 15:26:41;;;;;;;17.83;16.00;;;;;;;;;;5013563;28;20874;-84
2022/10/20 15:29:07;;;;;;;20.23;16.80;;;;;;;;;;5013662;28;20531;-84
2022/10/20 15:31:33;;;;;;;21.00;17.27;;;;;;;;;;5013297;28;20470;-84
2022/10/20 15:33:59;;;;;;;17.40;15.80;;;;;;;;;;5013442;28;20901;-84
2022/10/20 15:36:32;;;;;;;18.05;16.23;;;;;;;;;;5012166;28;20432;-84
2022/10/20 15:38:58;;;;;;;21.35;16.95;;;;;;;;;;5013049;28;20933;-84
2022/10/20 15:41:25;;;;;;;18.67;16.48;;;;;;;;;;5013135;28;20384;-84
2022/10/20 15:43:52;;;;;;;26.30;17.30;;;;;;;;;;5013300;28;20436;-84
2022/10/20 15:46:18;;;;;;;19.60;16.67;;;;;;;;;;5013509;28;20388;-84
2022/10/20 15:48:44;;;;;;;24.75;17.17;;;;;;;;;;5013180;28;20911;-84
2022/10/20 15:51:16;;;;;;;23.57;16.97;;;;;;;;;;5012976;28;20499;-83
2022/10/20 15:53:44;;;;;;;22.25;16.55;;;;;;;;;;5013055;28;20409;-84
2022/10/20 15:56:10;;;;;;;17.77;15.90;;;;;;;;;;5012948;28;20381;-84
2022/10/20 15:58:36;;;;;;;19.67;17.40;;;;;;;;;;5011946;28;20443;-84
2022/10/20 16:01:02;;;;;;;20.77;16.30;;;;;;;;;;5012784;28;20412;-84
2022/10/20 16:03:28;;;;;;;19.13;17.08;;;;;;;;;;5012857;28;20381;-84
2022/10/20 16:05:54;;;;;;;21.67;16.88;;;;;;;;;;5012876;28;20393;-84
2022/10/20 16:08:20;;;;;;;19.38;17.05;;;;;;;;;;5012246;28;20432;-84
2022/10/20 16:10:47;;;;;;;20.70;17.65;;;;;;;;;;5011463;28;20442;-83
2022/10/20 16:13:14;;;;;;;20.65;18.40;;;;;;;;;;5020278;28;20386;-84
2022/10/20 16:15:40;;;;;;;38.58;31.25;;;;;;;;;;5019177;28;20728;-84
2022/10/20 16:18:06;;;;;;;31.70;22.20;;;;;;;;;;5018302;28;20424;-84
2022/10/20 16:20:32;;;;;;;28.85;23.05;;;;;;;;;;5012952;28;20389;-85
2022/10/20 16:22:58;;;;;;;25.53;21.33;;;;;;;;;;5011598;28;20393;-83
2022/10/20 16:25:24;;;;;;;22.85;19.38;;;;;;;;;;5012822;28;20377;-83
2022/10/20 16:27:52;;;;;;;25.98;18.15;;;;;;;;;;5010611;28;20786;-84
2022/10/20 16:30:18;;;;;;;22.50;17.08;;;;;;;;;;5015290;28;20467;-83
2022/10/20 16:32:44;;;;;;;20.08;16.73;;;;;;;;;;5011898;28;20388;-83
2022/10/20 16:35:10;;;;;;;32.73;26.23;;;;;;;;;;5005577;28;20392;-83
2022/10/20 16:37:36;;;;;;;22.60;16.70;;;;;;;;;;5005075;28;20844;-83
2022/10/20 16:40:02;;;;;;;23.08;16.95;;;;;;;;;;5012013;28;20476;-83
2022/10/20 16:42:31;;;;;;;17.98;16.15;;;;;;;;;;5012332;28;20392;-83
2022/10/20 16:44:58;;;;;;;24.00;17.67;;;;;;;;;;5002645;28;20471;-83
2022/10/20 16:47:24;;;;;;;19.48;17.30;;;;;;;;;;5012459;28;20396;-83
2022/10/20 16:49:50;;;;;;;19.87;16.10;;;;;;;;;;5012343;28;20435;-83
2022/10/20 16:52:16;;;;;;;20.45;16.23;;;;;;;;;;5012276;28;20404;-83
2022/10/20 16:54:42;;;;;;;18.60;16.63;;;;;;;;;;5012317;28;20395;-82
2022/10/20 16:57:10;;;;;;;21.42;17.75;;;;;;;;;;5012076;28;20413;-83
2022/10/20 16:59:37;;;;;;;22.08;18.75;;;;;;;;;;5012325;28;20413;-84
2022/10/20 17:02:03;;;;;;;25.88;20.05;;;;;;;;;;5012010;28;20399;-83
2022/10/20 17:04:29;;;;;;;23.93;20.37;;;;;;;;;;5012238;28;20434;-84
2022/10/20 17:06:55;;;;;;;29.38;21.83;;;;;;;;;;5012477;28;20393;-83
2022/10/20 17:09:21;;;;;;;25.90;21.55;;;;;;;;;;5012598;28;20847;-83
2022/10/20 17:11:47;;;;;;;23.92;19.23;;;;;;;;;;5012296;28;20404;-82
2022/10/20 17:14:13;;;;;;;25.77;19.77;;;;;;;;;;5011116;28;20758;-82
2022/10/20 17:16:40;;;;;;;46.15;32.60;;;;;;;;;;5012194;28;20452;-82
2022/10/20 17:19:06;;;;;;;35.97;23.45;;;;;;;;;;5011954;28;20377;-85
2022/10/20 17:21:33;;;;;;;27.73;21.13;;;;;;;;;;5015824;28;20584;-83
2022/10/20 17:23:59;;;;;;;26.67;23.55;;;;;;;;;;5015951;28;20543;-83
2022/10/20 17:26:26;;;;;;;33.65;25.17;;;;;;;;;;5016118;28;20941;-83
2022/10/20 17:28:56;;;;;;;37.63;27.42;;;;;;;;;;5015739;28;20471;-82
2022/10/20 17:31:22;;;;;;;38.53;27.70;;;;;;;;;;5015349;28;20388;-82
2022/10/20 17:33:48;;;;;;;38.83;29.67;;;;;;;;;;5015623;28;20893;-83
2022/10/20 17:36:14;;;;;;;38.42;28.38;;;;;;;;;;5015429;28;20467;-82
2022/10/20 17:38:41;;;;;;;36.67;26.40;;;;;;;;;;5013779;28;20385;-82
2022/10/20 17:41:08;;;;;;;34.17;26.38;;;;;;;;;;5014283;28;20385;-82
2022/10/20 17:43:34;;;;;;;32.45;25.88;;;;;;;;;;5014174;28;20870;-83
2022/10/20 17:46:02;;;;;;;33.10;24.63;;;;;;;;;;5006874;28;20391;-82
2022/10/20 17:48:28;;;;;;;29.10;25.08;;;;;;;;;;5015347;28;20388;-83
2022/10/20 17:51:00;;;;;;;27.35;23.98;;;;;;;;;;5015369;28;20436;-83
2022/10/20 17:53:26;;;;;;;32.90;24.60;;;;;;;;;;5013577;28;20404;-83
2022/10/20 17:55:52;;;;;;;26.80;21.40;;;;;;;;;;5015241;28;20385;-82
2022/10/20 17:58:18;;;;;;;24.30;21.58;;;;;;;;;;5015137;28;20467;-83
2022/10/20 18:00:44;;;;;;;25.40;21.55;;;;;;;;;;5015062;28;20420;-84
2022/10/20 18:03:10;;;;;;;22.63;20.25;;;;;;;;;;5015318;28;20404;-84
2022/10/20 18:05:36;;;;;;;24.93;20.70;;;;;;;;;;5015115;28;20782;-84
2022/10/20 18:08:02;;;;;;;23.27;19.90;;;;;;;;;;5015167;28;20403;-84
2022/10/20 18:10:28;;;;;;;21.48;19.17;;;;;;;;;;5023885;28;20880;-83
2022/10/20 18:12:54;;;;;;;26.40;22.37;;;;;;;;;;5028248;28;20463;-84
2022/10/20 18:15:20;;;;;;;27.65;21.80;;;;;;;;;;5014951;28;20745;-83
2022/10/20 18:17:46;;;;;;;35.78;25.05;;;;;;;;;;5013615;28;20409;-83
2022/10/20 18:20:12;;;;;;;51.15;33.50;;;;;;;;;;5013760;28;20866;-84
2022/10/20 18:22:38;;;;;;;46.40;32.28;;;;;;;;;;5014648;28;20484;-83
2022/10/20 18:25:04;;;;;;;42.03;31.13;;;;;;;;;;5014695;28;20388;-83
2022/10/20 18:27:30;;;;;;;41.45;29.75;;;;;;;;;;5014629;28;20401;-83
2022/10/20 18:29:56;;;;;;;39.92;29.63;;;;;;;;;;5013240;28;20389;-83